createdAt,value
2018-05-26T00:01:15.284Z,56.90
2018-05-26T00:03:43.013Z,56.40
2018-05-26T00:06:10.758Z,56.20
2018-05-26T00:08:38.498Z,56.20
2018-05-26T00:11:06.203Z,55.40
2018-05-26T00:13:33.968Z,55.40
2018-05-26T00:16:01.669Z,55.60
2018-05-26T00:18:29.366Z,54.60
2018-05-26T00:20:57.869Z,54.90
2018-05-26T00:23:25.584Z,54.90
2018-05-26T00:25:53.540Z,54.90
2018-05-26T00:28:21.250Z,54.30
2018-05-26T00:30:48.991Z,54.70
2018-05-26T00:33:17.981Z,55.10
2018-05-26T00:35:46.433Z,54.50
2018-05-26T00:38:14.124Z,54.50
2018-05-26T00:40:42.638Z,54.00
2018-05-26T00:43:10.338Z,54.00
2018-05-26T00:45:38.105Z,54.20
2018-05-26T00:48:05.897Z,54.10
2018-05-26T00:50:34.368Z,54.50
2018-05-26T00:53:03.363Z,54.10
2018-05-26T00:55:31.817Z,54.20
2018-05-26T00:57:59.512Z,54.10
2018-05-26T01:00:27.995Z,54.20
2018-05-26T01:02:56.475Z,54.30
2018-05-26T01:05:24.938Z,54.30
2018-05-26T01:07:53.439Z,53.90
2018-05-26T01:10:21.132Z,53.80
2018-05-26T01:12:48.966Z,53.60
2018-05-26T01:15:16.661Z,53.30
2018-05-26T01:17:44.366Z,53.80
2018-05-26T01:20:12.879Z,54.80
2018-05-26T01:22:40.580Z,54.80
2018-05-26T01:25:08.311Z,54.10
2018-05-26T01:27:36.022Z,54.70
2018-05-26T01:30:03.919Z,54.50
2018-05-26T01:32:32.400Z,55.20
2018-05-26T01:35:00.880Z,55.80
2018-05-26T01:37:28.620Z,55.80
2018-05-26T01:39:56.373Z,55.00
2018-05-26T01:42:24.078Z,54.10
2018-05-26T01:44:51.784Z,54.90
2018-05-26T01:47:19.522Z,54.60
2018-05-26T01:49:47.242Z,54.70
2018-05-26T01:52:15.752Z,55.60
2018-05-26T01:54:43.436Z,55.50
2018-05-26T01:57:11.150Z,55.10
2018-05-26T01:59:39.658Z,54.80
2018-05-26T02:02:07.356Z,54.80
2018-05-26T02:04:35.116Z,54.20
2018-05-26T02:07:02.828Z,55.10
2018-05-26T02:09:31.433Z,54.70
2018-05-26T02:11:59.132Z,54.70
2018-05-26T02:14:26.833Z,55.20
2018-05-26T02:16:55.340Z,55.20
2018-05-26T02:19:23.036Z,55.20
2018-05-26T02:21:50.761Z,55.40
2018-05-26T02:24:18.487Z,55.90
2018-05-26T02:26:46.975Z,56.20
2018-05-26T02:29:15.474Z,56.40
2018-05-26T02:31:43.240Z,56.40
2018-05-26T02:34:10.934Z,57.40
2018-05-26T02:36:38.635Z,57.70
2018-05-26T02:39:07.131Z,58.70
2018-05-26T02:41:34.844Z,58.70
2018-05-26T02:44:02.612Z,59.00
2018-05-26T02:46:30.311Z,59.10
2018-05-26T02:48:58.787Z,60.20
2018-05-26T02:51:27.283Z,60.70
2018-05-26T02:53:55.428Z,60.70
2018-05-26T02:56:23.917Z,62.30
2018-05-26T02:58:52.381Z,63.70
2018-05-26T03:01:20.879Z,63.60
2018-05-26T03:03:48.872Z,64.50
2018-05-26T03:06:22.312Z,64.50
2018-05-26T03:09:12.576Z,63.80
2018-05-26T03:11:47.917Z,63.20
2018-05-26T03:14:21.119Z,63.20
2018-05-26T03:16:49.452Z,63.80
2018-05-26T03:19:17.179Z,65.40
2018-05-26T03:21:44.880Z,65.40
2018-05-26T03:24:12.681Z,65.60
2018-05-26T03:26:40.537Z,65.10
2018-05-26T03:29:08.234Z,64.40
2018-05-26T03:31:35.963Z,64.20
2018-05-26T03:34:03.696Z,64.20
2018-05-26T03:36:31.428Z,65.50
2018-05-26T03:38:59.133Z,66.00
2018-05-26T03:41:26.878Z,65.80
2018-05-26T03:43:54.751Z,65.20
2018-05-26T03:46:22.465Z,64.80
2018-05-26T03:48:50.160Z,65.40
2018-05-26T03:51:18.661Z,66.00
2018-05-26T03:53:46.370Z,66.00
2018-05-26T03:56:26.120Z,66.50
2018-05-26T03:59:05.799Z,66.10
2018-05-26T04:01:33.656Z,67.00
2018-05-26T04:04:02.126Z,66.00
2018-05-26T04:06:30.623Z,65.20
2018-05-26T04:08:59.116Z,65.60
2018-05-26T04:11:26.887Z,65.50
2018-05-26T04:13:56.697Z,64.90
2018-05-26T04:16:24.412Z,64.90
2018-05-26T04:18:52.315Z,65.60
2018-05-26T04:21:20.104Z,64.20
2018-05-26T04:23:47.843Z,62.70
2018-05-26T04:26:15.549Z,62.20
2018-05-26T04:28:43.403Z,60.70
2018-05-26T04:31:11.143Z,61.50
2018-05-26T04:33:39.080Z,61.90
2018-05-26T04:36:08.074Z,63.00
2018-05-26T04:38:39.360Z,62.60
2018-05-26T04:41:07.051Z,62.60
2018-05-26T04:43:35.132Z,62.60
2018-05-26T04:46:02.820Z,61.30
2018-05-26T04:48:31.292Z,61.30
2018-05-26T04:50:59.787Z,61.10
2018-05-26T04:53:27.540Z,61.00
2018-05-26T04:55:56.068Z,60.70
2018-05-26T04:58:23.820Z,60.60
2018-05-26T05:00:52.332Z,60.20
2018-05-26T05:03:20.020Z,60.00
2018-05-26T05:05:48.515Z,61.50
2018-05-26T05:08:16.369Z,61.50
2018-05-26T05:10:44.827Z,61.80
2018-05-26T05:13:12.528Z,61.80
2018-05-26T05:15:40.433Z,63.00
2018-05-26T05:18:08.160Z,62.50
2018-05-26T05:20:35.850Z,61.50
2018-05-26T05:23:03.653Z,61.00
2018-05-26T05:25:32.281Z,61.00
2018-05-26T05:28:00.003Z,60.80
2018-05-26T05:30:28.498Z,60.30
2018-05-26T05:32:57.074Z,61.00
2018-05-26T05:35:25.596Z,60.60
2018-05-26T05:37:53.356Z,60.50
2018-05-26T05:40:21.144Z,60.30
2018-05-26T05:42:53.657Z,61.70
2018-05-26T05:45:22.572Z,62.30
2018-05-26T05:47:50.952Z,62.30
2018-05-26T05:50:19.484Z,63.10
2018-05-26T05:52:47.465Z,63.20
2018-05-26T05:55:16.016Z,59.80
2018-05-26T05:57:43.713Z,59.80
2018-05-26T06:00:11.483Z,59.10
2018-05-26T06:02:39.235Z,58.60
2018-05-26T06:05:07.804Z,57.90
2018-05-26T06:07:35.579Z,58.00
2018-05-26T06:10:04.070Z,55.40
2018-05-26T06:12:32.592Z,53.20
2018-05-26T06:15:00.384Z,53.10
2018-05-26T06:17:28.047Z,51.50
2018-05-26T06:19:55.902Z,49.30
2018-05-26T06:22:23.599Z,48.90
2018-05-26T06:24:52.284Z,47.00
2018-05-26T06:27:20.782Z,47.00
2018-05-26T06:29:48.700Z,47.00
2018-05-26T06:32:16.438Z,46.20
2018-05-26T06:34:49.818Z,47.50
2018-05-26T06:37:18.377Z,44.90
2018-05-26T06:39:47.225Z,44.20
2018-05-26T06:42:14.992Z,44.20
2018-05-26T06:44:44.678Z,45.80
2018-05-26T06:47:13.779Z,45.10
2018-05-26T06:49:42.307Z,46.70
2018-05-26T06:52:10.037Z,46.70
2018-05-26T06:54:37.868Z,46.20
2018-05-26T06:57:05.575Z,44.70
2018-05-26T06:59:33.751Z,45.20
2018-05-26T07:02:01.487Z,43.60
2018-05-26T07:04:29.197Z,44.60
2018-05-26T07:06:58.151Z,44.20
2018-05-26T07:09:29.513Z,44.20
2018-05-26T07:11:57.421Z,43.40
2018-05-26T07:14:25.160Z,43.00
2018-05-26T07:16:53.648Z,43.60
2018-05-26T07:19:22.169Z,44.10
2018-05-26T07:21:49.904Z,44.20
2018-05-26T07:24:17.768Z,44.00
2018-05-26T07:26:45.547Z,44.00
2018-05-26T07:29:13.280Z,44.30
2018-05-26T07:34:51.244Z,44.40
2018-05-26T07:37:22.532Z,42.90
2018-05-26T07:39:50.241Z,42.60
2018-05-26T07:42:17.975Z,42.00
2018-05-26T07:44:46.631Z,43.00
2018-05-26T07:47:14.515Z,43.00
2018-05-26T07:49:43.252Z,41.40
2018-05-26T07:52:11.666Z,41.90
2018-05-26T07:55:19.377Z,43.20
2018-05-26T07:57:48.333Z,43.60
2018-05-26T08:00:15.971Z,43.50
2018-05-26T08:02:44.533Z,44.30
2018-05-26T08:05:15.591Z,44.00
2018-05-26T08:07:44.035Z,43.20
2018-05-26T08:10:12.522Z,43.90
2018-05-26T08:12:40.996Z,43.80
2018-05-26T08:15:10.475Z,44.80
2018-05-26T08:17:39.293Z,44.70
2018-05-26T08:20:08.860Z,44.30
2018-05-26T08:22:37.692Z,44.30
2018-05-26T08:25:06.741Z,43.70
2018-05-26T08:27:34.465Z,43.70
2018-05-26T08:30:02.191Z,42.50
2018-05-26T08:32:30.741Z,44.50
2018-05-26T08:34:58.446Z,44.30
2018-05-26T08:37:26.917Z,44.00
2018-05-26T08:39:55.427Z,43.90
2018-05-26T08:42:23.217Z,43.90
2018-05-26T08:44:50.964Z,43.90
2018-05-26T08:47:18.665Z,42.80
2018-05-26T08:49:46.973Z,43.00
2018-05-26T08:52:15.458Z,42.80
2018-05-26T08:57:18.079Z,43.20
2018-05-26T08:59:45.809Z,42.70
2018-05-26T09:02:14.343Z,42.70
2018-05-26T09:04:42.561Z,42.60
2018-05-26T09:07:11.047Z,45.80
2018-05-26T09:09:39.516Z,43.20
2018-05-26T09:12:08.033Z,43.60
2018-05-26T09:14:36.492Z,46.40
2018-05-26T09:17:07.303Z,46.40
2018-05-26T09:19:35.023Z,44.60
2018-05-26T09:22:02.797Z,42.80
2018-05-26T09:24:30.507Z,42.20
2018-05-26T09:26:59.760Z,43.80
2018-05-26T09:29:27.631Z,43.80
2018-05-26T09:31:55.327Z,43.70
2018-05-26T09:34:23.789Z,44.40
2018-05-26T09:36:51.868Z,44.30
2018-05-26T09:39:20.332Z,44.00
2018-05-26T09:41:50.356Z,42.50
2018-05-26T09:44:19.516Z,43.00
2018-05-26T09:46:48.954Z,42.90
2018-05-26T09:49:16.656Z,43.30
2018-05-26T09:51:44.383Z,42.00
2018-05-26T09:54:12.122Z,42.50
2018-05-26T09:56:40.381Z,42.90
2018-05-26T09:59:08.102Z,42.10
2018-05-26T10:01:36.560Z,42.00
2018-05-26T10:04:04.280Z,42.00
2018-05-26T10:06:31.967Z,42.50
2018-05-26T10:08:59.693Z,42.20
2018-05-26T10:11:27.451Z,41.70
2018-05-26T10:13:55.157Z,40.20
2018-05-26T10:16:22.904Z,39.60
2018-05-26T10:18:50.635Z,41.10
2018-05-26T10:21:18.441Z,42.60
2018-05-26T10:23:46.545Z,40.30
2018-05-26T10:26:15.042Z,42.30
2018-05-26T10:28:42.739Z,42.20
2018-05-26T10:31:10.507Z,40.30
2018-05-26T10:33:38.241Z,41.20
2018-05-26T10:36:05.953Z,42.10
2018-05-26T10:38:33.678Z,39.50
2018-05-26T10:41:01.404Z,39.90
2018-05-26T10:43:29.872Z,38.80
2018-05-26T10:46:09.592Z,38.80
2018-05-26T10:48:37.460Z,38.70
2018-05-26T10:51:05.160Z,38.30
2018-05-26T10:53:33.669Z,38.80
2018-05-26T10:56:01.356Z,38.70
2018-05-26T10:58:29.061Z,37.60
2018-05-26T11:00:57.561Z,38.00
2018-05-26T11:03:25.480Z,37.90
2018-05-26T11:05:53.202Z,37.80
2018-05-26T11:08:21.003Z,36.70
2018-05-26T11:10:48.699Z,36.40
2018-05-26T11:13:17.160Z,38.80
2018-05-26T11:15:44.903Z,38.70
2018-05-26T11:18:12.590Z,37.20
2018-05-26T11:20:40.428Z,35.00
2018-05-26T11:23:08.128Z,36.60
2018-05-26T11:25:36.615Z,33.50
2018-05-26T11:28:05.150Z,35.80
2018-05-26T11:30:32.882Z,35.90
2018-05-26T11:33:00.717Z,35.90
2018-05-26T11:35:29.264Z,35.80
2018-05-26T11:37:56.950Z,35.80
2018-05-26T11:40:24.674Z,36.00
2018-05-26T11:42:52.512Z,33.30
2018-05-26T11:45:20.213Z,33.80
2018-05-26T11:47:47.901Z,32.00
2018-05-26T11:50:15.644Z,33.30
2018-05-26T11:52:43.341Z,35.50
2018-05-26T11:55:11.942Z,33.50
2018-05-26T11:57:39.634Z,33.40
2018-05-26T12:00:07.332Z,32.00
2018-05-26T12:02:35.181Z,33.30
2018-05-26T12:05:02.883Z,33.30
2018-05-26T12:07:31.346Z,34.60
2018-05-26T12:09:59.067Z,34.60
2018-05-26T12:12:26.759Z,33.20
2018-05-26T12:14:54.512Z,31.40
2018-05-26T12:17:22.272Z,31.70
2018-05-26T12:19:50.699Z,28.90
2018-05-26T12:22:19.205Z,29.00
2018-05-26T12:24:47.001Z,28.90
2018-05-26T12:27:15.072Z,28.70
2018-05-26T12:29:42.771Z,29.60
2018-05-26T12:32:11.221Z,29.10
2018-05-26T12:34:38.949Z,29.10
2018-05-26T12:37:06.647Z,29.10
2018-05-26T12:39:34.372Z,29.30
2018-05-26T12:42:02.072Z,29.10
2018-05-26T12:44:29.787Z,29.20
2018-05-26T12:46:57.476Z,30.00
2018-05-26T12:49:25.316Z,29.50
2018-05-26T12:51:53.005Z,29.90
2018-05-26T12:54:20.681Z,30.50
2018-05-26T12:56:48.532Z,29.10
2018-05-26T12:59:16.261Z,31.00
2018-05-26T13:01:44.070Z,30.80
2018-05-26T13:04:11.818Z,29.50
2018-05-26T13:06:39.526Z,33.00
2018-05-26T13:09:07.971Z,28.50
2018-05-26T13:11:35.696Z,27.90
2018-05-26T13:14:03.444Z,27.60
2018-05-26T13:16:32.058Z,27.10
2018-05-26T13:18:59.767Z,27.00
2018-05-26T13:21:27.472Z,27.30
2018-05-26T13:23:55.228Z,27.40
2018-05-26T13:26:22.932Z,27.90
2018-05-26T13:28:50.663Z,28.30
2018-05-26T13:31:18.356Z,27.80
2018-05-26T13:33:46.054Z,27.50
2018-05-26T13:36:14.657Z,29.30
2018-05-26T13:38:42.524Z,29.30
2018-05-26T13:41:10.216Z,28.20
2018-05-26T13:43:37.936Z,28.10
2018-05-26T13:46:05.641Z,28.70
2018-05-26T13:48:33.523Z,29.60
2018-05-26T13:51:01.209Z,28.70
2018-05-26T13:53:29.707Z,31.40
2018-05-26T13:55:58.200Z,29.50
2018-05-26T13:58:25.920Z,29.50
2018-05-26T14:00:53.607Z,29.80
2018-05-26T14:03:22.111Z,29.70
2018-05-26T14:05:49.811Z,29.60
2018-05-26T14:08:17.531Z,29.60
2018-05-26T14:10:45.234Z,30.30
2018-05-26T14:13:12.966Z,30.60
2018-05-26T14:15:40.754Z,30.70
2018-05-26T14:18:08.519Z,31.60
2018-05-26T14:20:36.369Z,31.20
2018-05-26T14:23:04.082Z,30.20
2018-05-26T14:25:31.789Z,30.80
2018-05-26T14:27:59.536Z,29.90
2018-05-26T14:30:27.241Z,30.00
2018-05-26T14:32:55.009Z,31.00
2018-05-26T14:35:22.711Z,31.40
2018-05-26T14:37:50.418Z,30.10
2018-05-26T14:40:18.255Z,29.10
2018-05-26T14:42:45.951Z,29.70
2018-05-26T14:45:13.643Z,29.80
2018-05-26T14:47:42.234Z,30.20
2018-05-26T14:50:10.707Z,31.40
2018-05-26T14:52:38.464Z,31.40
2018-05-26T14:55:06.958Z,29.80
2018-05-26T14:57:34.665Z,29.70
2018-05-26T15:00:02.401Z,29.00
2018-05-26T15:02:30.128Z,29.20
2018-05-26T15:04:58.781Z,29.90
2018-05-26T15:07:26.534Z,29.80
2018-05-26T15:09:54.200Z,29.40
2018-05-26T15:12:21.933Z,29.40
2018-05-26T15:14:49.632Z,29.10
2018-05-26T15:17:17.360Z,30.00
2018-05-26T15:19:45.053Z,29.70
2018-05-26T15:22:13.259Z,30.00
2018-05-26T15:24:41.829Z,29.30
2018-05-26T15:27:09.536Z,29.20
2018-05-26T15:29:37.255Z,30.80
2018-05-26T15:32:05.104Z,29.80
2018-05-26T15:34:33.177Z,31.60
2018-05-26T15:37:00.935Z,29.60
2018-05-26T15:39:28.627Z,30.90
2018-05-26T15:41:57.148Z,31.30
2018-05-26T15:44:24.842Z,31.30
2018-05-26T15:46:53.031Z,29.70
2018-05-26T15:49:20.722Z,30.10
2018-05-26T15:51:48.401Z,31.20
2018-05-26T15:54:16.155Z,29.80
2018-05-26T15:56:43.843Z,30.30
2018-05-26T15:59:11.622Z,30.70
2018-05-26T16:01:40.115Z,31.30
2018-05-26T16:04:07.816Z,31.30
2018-05-26T16:06:35.583Z,30.90
2018-05-26T16:09:03.370Z,31.70
2018-05-26T16:11:31.055Z,32.00
2018-05-26T16:13:58.815Z,30.60
2018-05-26T16:16:26.914Z,31.20
2018-05-26T16:18:55.387Z,31.50
2018-05-26T16:21:23.071Z,31.00
2018-05-26T16:23:51.571Z,30.90
2018-05-26T16:26:19.258Z,30.90
2018-05-26T16:28:46.994Z,31.50
2018-05-26T16:31:14.734Z,31.10
2018-05-26T16:33:43.199Z,30.10
2018-05-26T16:36:12.198Z,30.40
2018-05-26T16:38:40.662Z,30.50
2018-05-26T16:41:08.366Z,30.40
2018-05-26T16:43:36.111Z,29.10
2018-05-26T16:46:04.607Z,30.70
2018-05-26T16:48:32.367Z,30.60
2018-05-26T16:51:00.079Z,31.00
2018-05-26T16:53:27.770Z,31.20
2018-05-26T16:55:56.356Z,31.30
2018-05-26T16:58:24.826Z,30.20
2018-05-26T17:00:53.380Z,31.00
2018-05-26T17:03:21.211Z,31.00
2018-05-26T17:05:49.014Z,31.10
2018-05-26T17:08:16.705Z,30.60
2018-05-26T17:10:45.204Z,31.30
2018-05-26T17:13:13.361Z,31.20
2018-05-26T17:15:41.906Z,30.90
2018-05-26T17:18:09.597Z,30.90
2018-05-26T17:20:38.098Z,31.60
2018-05-26T17:23:05.797Z,31.60
2018-05-26T17:25:33.557Z,30.60
2018-05-26T17:28:01.248Z,31.10
2018-05-26T17:30:28.967Z,31.90
2018-05-26T17:32:56.704Z,32.40
2018-05-26T17:35:25.173Z,32.60
2018-05-26T17:37:56.032Z,31.80
2018-05-26T17:40:23.838Z,31.70
2018-05-26T17:42:51.536Z,32.50
2018-05-26T17:45:20.052Z,32.70
2018-05-26T17:47:47.780Z,32.80
2018-05-26T17:50:16.978Z,33.60
2018-05-26T17:52:46.144Z,34.10
2018-05-26T17:55:14.229Z,34.10
2018-05-26T17:57:41.914Z,34.20
2018-05-26T18:00:10.796Z,34.40
2018-05-26T18:02:42.549Z,34.00
2018-05-26T18:05:11.044Z,34.00
2018-05-26T18:07:38.752Z,34.00
2018-05-26T18:10:06.485Z,33.80
2018-05-26T18:12:34.208Z,34.20
2018-05-26T18:15:03.082Z,34.50
2018-05-26T18:17:30.777Z,34.50
2018-05-26T18:19:59.247Z,35.20
2018-05-26T18:22:28.313Z,35.80
2018-05-26T18:24:56.096Z,35.80
2018-05-26T18:27:25.167Z,36.20
2018-05-26T18:29:54.177Z,36.10
2018-05-26T18:32:22.923Z,36.10
2018-05-26T18:34:51.629Z,36.20
2018-05-26T18:37:19.439Z,36.00
2018-05-26T18:39:47.143Z,36.50
2018-05-26T18:42:17.954Z,36.50
2018-05-26T18:44:45.646Z,36.70
2018-05-26T18:47:13.372Z,36.60
2018-05-26T18:49:41.068Z,36.70
2018-05-26T18:52:08.771Z,37.20
2018-05-26T18:54:37.409Z,37.40
2018-05-26T18:57:05.321Z,37.40
2018-05-26T18:59:33.805Z,37.50
2018-05-26T19:02:02.310Z,37.60
2018-05-26T19:04:30.017Z,37.50
2018-05-26T19:06:58.405Z,37.40
2018-05-26T19:09:26.895Z,37.80
2018-05-26T19:11:55.362Z,37.80
2018-05-26T19:14:23.096Z,37.80
2018-05-26T19:16:50.809Z,37.80
2018-05-26T19:19:19.415Z,37.80
2018-05-26T19:21:47.132Z,37.90
2018-05-26T19:24:14.833Z,38.20
2018-05-26T19:26:42.628Z,38.00
2018-05-26T19:29:10.324Z,38.20
2018-05-26T19:31:38.076Z,38.50
2018-05-26T19:34:06.276Z,38.20
2018-05-26T19:36:41.174Z,38.90
2018-05-26T19:39:09.739Z,38.80
2018-05-26T19:41:37.781Z,38.80
2018-05-26T19:46:55.015Z,39.70
2018-05-26T19:49:22.804Z,39.70
2018-05-26T19:51:50.495Z,39.90
2018-05-26T19:54:18.192Z,40.40
2018-05-26T19:56:47.135Z,41.30
2018-05-26T19:59:14.836Z,41.30
2018-05-26T20:01:43.728Z,42.10
2018-05-26T20:04:16.173Z,42.30
2018-05-26T20:06:43.938Z,42.30
2018-05-26T20:09:11.644Z,42.50
2018-05-26T20:11:39.347Z,42.90
2018-05-26T20:14:07.864Z,43.20
2018-05-26T20:16:36.065Z,43.50
2018-05-26T20:19:04.316Z,43.80
2018-05-26T20:21:33.780Z,44.40
2018-05-26T20:24:01.784Z,44.40
2018-05-26T20:26:30.843Z,45.10
2018-05-26T20:28:58.670Z,45.00
2018-05-26T20:31:27.422Z,45.10
2018-05-26T20:33:58.821Z,45.50
2018-05-26T20:36:26.532Z,45.50
2018-05-26T20:38:55.056Z,46.50
2018-05-26T20:41:24.797Z,45.70
2018-05-26T20:43:53.384Z,46.10
2018-05-26T20:46:22.613Z,46.20
2018-05-26T20:48:51.770Z,46.60
2018-05-26T20:51:20.534Z,46.80
2018-05-26T20:53:48.769Z,46.80
2018-05-26T20:56:18.999Z,46.70
2018-05-26T20:58:47.665Z,46.70
2018-05-26T21:01:16.523Z,47.10
2018-05-26T21:03:45.405Z,47.20
2018-05-26T21:06:13.254Z,47.20
2018-05-26T21:08:42.741Z,47.10
2018-05-26T21:11:11.559Z,47.30
2018-05-26T21:13:48.710Z,47.50
2018-05-26T21:16:16.424Z,47.40
2018-05-26T21:18:44.166Z,47.90
2018-05-26T21:21:11.938Z,48.80
2018-05-26T21:23:39.661Z,48.40
2018-05-26T21:26:07.541Z,48.50
2018-05-26T21:28:35.250Z,48.50
2018-05-26T21:31:05.473Z,48.70
2018-05-26T21:33:34.260Z,49.00
2018-05-26T21:36:02.940Z,49.10
2018-05-26T21:38:31.624Z,49.20
2018-05-26T21:41:02.366Z,49.50
2018-05-26T21:43:34.846Z,49.60
2018-05-26T21:46:04.966Z,49.50
2018-05-26T21:48:33.760Z,49.70
2018-05-26T21:51:02.552Z,49.80
2018-05-26T21:53:30.801Z,49.80
2018-05-26T21:55:58.501Z,50.60
2018-05-26T21:58:26.246Z,49.80
2018-05-26T22:00:54.747Z,49.80
2018-05-26T22:03:22.466Z,49.80
2018-05-26T22:05:50.207Z,49.90
2018-05-26T22:08:17.980Z,49.60
2018-05-26T22:10:45.671Z,49.60
2018-05-26T22:13:14.163Z,49.50
2018-05-26T22:15:42.671Z,49.80
2018-05-26T22:18:10.390Z,49.80
2018-05-26T22:20:38.945Z,49.80
2018-05-26T22:23:06.699Z,49.60
2018-05-26T22:25:34.404Z,49.50
2018-05-26T22:28:02.921Z,49.60
2018-05-26T22:30:30.620Z,49.60
2018-05-26T22:32:58.330Z,49.60
2018-05-26T22:35:26.061Z,49.60
2018-05-26T22:37:54.515Z,49.70
2018-05-26T22:40:22.594Z,49.70
2018-05-26T22:42:50.291Z,49.60
2018-05-26T22:45:18.784Z,50.00
2018-05-26T22:47:46.511Z,50.00
2018-05-26T22:50:14.212Z,50.40
2018-05-26T22:52:41.950Z,50.10
2018-05-26T22:55:10.466Z,50.30
2018-05-26T22:57:38.161Z,50.20
2018-05-26T23:00:05.937Z,50.20
2018-05-26T23:02:33.653Z,50.30
2018-05-26T23:05:01.794Z,50.40
2018-05-26T23:07:30.267Z,50.90
2018-05-26T23:09:58.730Z,51.00
2018-05-26T23:12:26.484Z,51.00
2018-05-26T23:14:55.024Z,51.00
2018-05-26T23:17:22.730Z,50.90
2018-05-26T23:19:50.452Z,51.40
2018-05-26T23:22:18.170Z,51.40
2018-05-26T23:24:45.869Z,51.40
2018-05-26T23:27:13.612Z,51.70
2018-05-26T23:29:42.099Z,52.00
2018-05-26T23:32:09.819Z,52.00
2018-05-26T23:34:37.520Z,52.00
2018-05-26T23:37:06.027Z,52.20
2018-05-26T23:39:33.739Z,52.20
2018-05-26T23:42:01.491Z,52.40
2018-05-26T23:44:29.191Z,52.60
2018-05-26T23:46:56.935Z,52.90
2018-05-26T23:49:25.423Z,53.30
2018-05-26T23:51:53.891Z,53.20
2018-05-26T23:54:22.646Z,53.10
2018-05-26T23:56:50.348Z,53.10
2018-05-26T23:59:18.811Z,53.70
